createdAt,value
2019-05-23T00:00:54.938Z,16.73
2019-05-23T00:03:34.088Z,14.93
2019-05-23T00:06:10.820Z,15.27
2019-05-23T00:08:46.216Z,14.17
2019-05-23T00:11:20.939Z,15.00
2019-05-23T00:14:07.457Z,12.93
2019-05-23T00:16:37.060Z,14.87
2019-05-23T00:19:06.273Z,13.27
2019-05-23T00:21:35.446Z,13.60
2019-05-23T00:24:04.712Z,13.97
2019-05-23T00:26:33.918Z,13.53
2019-05-23T00:29:09.846Z,12.77
2019-05-23T00:31:38.203Z,12.47
2019-05-23T00:34:07.899Z,10.80
2019-05-23T00:36:37.092Z,11.83
2019-05-23T00:39:06.834Z,11.43
2019-05-23T00:41:36.052Z,12.80
2019-05-23T00:44:05.323Z,12.80
2019-05-23T00:46:34.613Z,11.63
2019-05-23T00:49:03.837Z,12.67
2019-05-23T00:51:33.047Z,12.70
2019-05-23T00:54:02.297Z,15.57
2019-05-23T00:56:31.491Z,14.00
2019-05-23T00:59:00.721Z,13.50
2019-05-23T01:01:29.926Z,14.13
2019-05-23T01:03:59.134Z,14.77
2019-05-23T01:06:28.349Z,14.40
2019-05-23T01:08:57.576Z,14.63
2019-05-23T01:11:26.830Z,13.87
2019-05-23T01:13:56.478Z,14.67
2019-05-23T01:16:25.986Z,14.30
2019-05-23T01:18:55.249Z,15.87
2019-05-23T01:21:28.822Z,14.30
2019-05-23T01:24:02.298Z,14.13
2019-05-23T01:26:31.518Z,14.17
2019-05-23T01:29:00.718Z,12.63
2019-05-23T01:31:32.348Z,13.90
2019-05-23T01:34:01.544Z,14.30
2019-05-23T01:36:30.769Z,13.70
2019-05-23T01:39:00.860Z,13.67
2019-05-23T01:41:30.304Z,12.13
2019-05-23T01:43:59.486Z,12.97
2019-05-23T01:46:28.728Z,12.43
2019-05-23T01:48:57.959Z,13.20
2019-05-23T01:51:27.167Z,13.17
2019-05-23T01:53:56.384Z,12.57
2019-05-23T01:56:25.638Z,12.47
2019-05-23T01:58:54.961Z,12.87
2019-05-23T02:01:24.193Z,11.40
2019-05-23T02:03:53.418Z,12.27
2019-05-23T02:06:22.623Z,10.23
2019-05-23T02:08:51.852Z,12.73
2019-05-23T02:11:21.049Z,10.67
2019-05-23T02:13:50.245Z,11.37
2019-05-23T02:16:19.473Z,11.03
2019-05-23T02:18:48.952Z,11.10
2019-05-23T02:21:18.189Z,10.33
2019-05-23T02:23:47.438Z,9.17
2019-05-23T02:26:16.634Z,6.87
2019-05-23T02:28:45.855Z,9.40
2019-05-23T02:31:15.020Z,9.80
2019-05-23T02:33:44.190Z,9.63
2019-05-23T02:36:13.411Z,7.83
2019-05-23T02:38:56.351Z,26.33
2019-05-23T02:41:29.905Z,11.40
2019-05-23T02:44:03.431Z,10.33
2019-05-23T02:46:36.730Z,11.17
2019-05-23T02:49:05.984Z,10.80
2019-05-23T02:51:35.186Z,10.93
2019-05-23T02:54:04.832Z,10.57
2019-05-23T02:56:34.810Z,10.50
2019-05-23T02:59:08.250Z,10.20
2019-05-23T03:01:44.801Z,9.73
2019-05-23T03:04:15.904Z,8.90
2019-05-23T03:06:45.333Z,8.83
2019-05-23T03:09:14.554Z,9.03
2019-05-23T03:11:44.860Z,10.60
2019-05-23T03:14:14.296Z,8.53
2019-05-23T03:16:43.873Z,10.70
2019-05-23T03:19:15.261Z,10.37
2019-05-23T03:21:44.544Z,10.77
2019-05-23T03:24:13.789Z,9.87
2019-05-23T03:26:49.731Z,8.97
2019-05-23T03:29:18.950Z,9.93
2019-05-23T03:31:51.495Z,10.83
2019-05-23T03:34:21.877Z,10.30
2019-05-23T03:36:51.065Z,9.90
2019-05-23T03:39:20.307Z,9.93
2019-05-23T03:41:49.500Z,8.97
2019-05-23T03:44:18.668Z,10.70
2019-05-23T03:46:48.122Z,10.60
2019-05-23T03:49:17.355Z,9.23
2019-05-23T03:51:46.629Z,10.07
2019-05-23T03:54:15.824Z,8.00
2019-05-23T03:56:45.017Z,10.47
2019-05-23T03:59:14.717Z,10.53
2019-05-23T04:01:48.525Z,9.40
2019-05-23T04:04:13.152Z,10.93
2019-05-23T04:06:42.405Z,10.80
2019-05-23T04:09:11.662Z,9.57
2019-05-23T04:11:40.843Z,11.53
2019-05-23T04:14:10.094Z,10.03
2019-05-23T04:16:39.777Z,9.30
2019-05-23T04:19:08.987Z,10.60
2019-05-23T04:21:38.197Z,11.00
2019-05-23T04:24:07.478Z,10.40
2019-05-23T04:26:36.612Z,11.83
2019-05-23T04:29:05.823Z,11.23
2019-05-23T04:31:35.045Z,10.83
2019-05-23T04:34:04.251Z,9.57
2019-05-23T04:36:33.445Z,9.90
2019-05-23T04:39:02.617Z,9.70
2019-05-23T04:41:31.837Z,10.17
2019-05-23T04:44:01.070Z,8.93
2019-05-23T04:46:30.260Z,7.90
2019-05-23T04:48:59.442Z,8.17
2019-05-23T04:51:28.638Z,8.80
2019-05-23T04:53:57.875Z,7.10
2019-05-23T04:56:27.059Z,7.47
2019-05-23T04:58:56.297Z,8.07
2019-05-23T05:01:25.475Z,7.43
2019-05-23T05:03:54.693Z,6.87
2019-05-23T05:06:23.862Z,6.80
2019-05-23T05:08:53.130Z,6.50
2019-05-23T05:11:22.336Z,5.77
2019-05-23T05:13:51.565Z,5.40
2019-05-23T05:16:20.766Z,6.10
2019-05-23T05:18:49.958Z,5.30
2019-05-23T05:21:19.251Z,6.27
2019-05-23T05:23:48.437Z,4.70
2019-05-23T05:26:19.725Z,5.23
2019-05-23T05:28:49.025Z,5.53
2019-05-23T05:31:18.431Z,5.00
2019-05-23T05:33:47.640Z,4.53
2019-05-23T05:36:16.848Z,5.20
2019-05-23T05:38:46.011Z,5.13
2019-05-23T05:41:15.263Z,4.43
2019-05-23T05:43:44.439Z,4.07
2019-05-23T05:46:13.699Z,4.23
2019-05-23T05:48:42.922Z,5.13
2019-05-23T05:51:12.122Z,4.63
2019-05-23T05:53:41.433Z,3.97
2019-05-23T05:56:10.972Z,4.37
2019-05-23T05:58:39.890Z,4.33
2019-05-23T06:01:09.603Z,4.03
2019-05-23T06:03:39.152Z,4.23
2019-05-23T06:06:14.006Z,3.53
2019-05-23T06:08:44.015Z,5.30
2019-05-23T06:11:13.319Z,5.00
2019-05-23T06:13:42.515Z,4.93
2019-05-23T06:16:11.697Z,4.37
2019-05-23T06:18:40.941Z,4.53
2019-05-23T06:21:11.342Z,4.93
2019-05-23T06:23:40.478Z,4.50
2019-05-23T06:26:10.118Z,5.10
2019-05-23T06:28:39.528Z,4.63
2019-05-23T06:31:08.785Z,9.57
2019-05-23T06:33:37.952Z,4.90
2019-05-23T06:36:07.278Z,5.10
2019-05-23T06:38:36.457Z,4.90
2019-05-23T06:41:05.633Z,5.20
2019-05-23T06:43:35.068Z,5.27
2019-05-23T06:46:04.213Z,4.90
2019-05-23T06:48:33.449Z,5.07
2019-05-23T06:51:02.709Z,5.27
2019-05-23T06:53:31.971Z,4.97
2019-05-23T06:56:01.137Z,5.27
2019-05-23T06:58:30.344Z,5.53
2019-05-23T07:00:59.549Z,5.83
2019-05-23T07:03:41.303Z,5.70
2019-05-23T07:05:58.053Z,5.30
2019-05-23T07:08:27.540Z,5.50
2019-05-23T07:10:56.856Z,5.87
2019-05-23T07:13:26.532Z,4.97
2019-05-23T07:15:55.757Z,6.47
2019-05-23T07:18:25.168Z,4.70
2019-05-23T07:20:54.355Z,5.60
2019-05-23T07:23:23.591Z,5.47
2019-05-23T07:25:52.788Z,10.83
2019-05-23T07:28:21.991Z,5.37
2019-05-23T07:30:51.196Z,5.43
2019-05-23T07:33:20.408Z,5.37
2019-05-23T07:35:49.586Z,5.20
2019-05-23T07:38:18.954Z,5.33
2019-05-23T07:40:48.526Z,4.43
2019-05-23T07:43:17.859Z,4.50
2019-05-23T07:45:50.925Z,4.83
2019-05-23T07:48:20.218Z,4.47
2019-05-23T07:50:49.475Z,5.13
2019-05-23T07:53:23.045Z,4.53
2019-05-23T07:55:52.306Z,3.87
2019-05-23T07:58:21.493Z,3.40
2019-05-23T08:00:54.049Z,3.67
2019-05-23T08:03:24.346Z,3.95
2019-05-23T08:05:53.523Z,3.37
2019-05-23T08:08:22.746Z,3.60
2019-05-23T08:10:51.938Z,3.27
2019-05-23T08:13:21.137Z,2.90
2019-05-23T08:15:50.391Z,2.87
2019-05-23T08:18:19.597Z,3.00
2019-05-23T08:20:49.280Z,2.70
2019-05-23T08:23:18.476Z,2.67
2019-05-23T08:25:47.746Z,2.60
2019-05-23T08:28:17.105Z,2.43
2019-05-23T08:30:46.335Z,2.37
2019-05-23T08:33:15.598Z,2.67
2019-05-23T08:35:44.869Z,2.40
2019-05-23T08:38:14.044Z,2.70
2019-05-23T08:40:43.230Z,2.50
2019-05-23T08:43:12.821Z,2.60
2019-05-23T08:45:41.713Z,2.37
2019-05-23T08:48:11.002Z,2.23
2019-05-23T08:50:40.597Z,2.67
2019-05-23T08:53:09.917Z,2.30
2019-05-23T08:55:39.170Z,2.72
2019-05-23T08:58:08.353Z,3.00
2019-05-23T09:00:39.272Z,2.63
2019-05-23T09:03:08.435Z,2.63
2019-05-23T09:05:37.842Z,2.13
2019-05-23T09:08:07.082Z,3.07
2019-05-23T09:10:36.499Z,2.42
2019-05-23T09:13:05.743Z,2.47
2019-05-23T09:15:34.973Z,3.02
2019-05-23T09:18:04.364Z,2.60
2019-05-23T09:20:33.571Z,3.33
2019-05-23T09:23:02.786Z,2.70
2019-05-23T09:25:32.107Z,3.80
2019-05-23T09:28:01.349Z,2.80
2019-05-23T09:30:30.553Z,3.30
2019-05-23T09:32:59.829Z,3.60
2019-05-23T09:35:29.098Z,3.62
2019-05-23T09:37:58.287Z,2.75
2019-05-23T09:40:27.555Z,2.95
2019-05-23T09:42:56.750Z,3.05
2019-05-23T09:45:25.957Z,2.97
2019-05-23T09:47:55.130Z,3.40
2019-05-23T09:50:24.867Z,2.93
2019-05-23T09:52:54.114Z,3.30
2019-05-23T09:55:23.301Z,3.10
2019-05-23T09:57:52.513Z,3.33
2019-05-23T10:00:22.045Z,3.83
2019-05-23T10:02:51.418Z,2.97
2019-05-23T10:05:40.186Z,2.90
2019-05-23T10:07:49.902Z,2.90
2019-05-23T10:10:19.501Z,3.40
2019-05-23T10:12:48.694Z,3.33
2019-05-23T10:15:27.272Z,3.22
2019-05-23T10:18:00.596Z,2.60
2019-05-23T10:20:25.767Z,3.20
2019-05-23T10:22:54.964Z,2.60
2019-05-23T10:25:24.155Z,2.92
2019-05-23T10:27:55.776Z,2.70
2019-05-23T10:30:22.574Z,2.90
2019-05-23T10:32:52.377Z,2.50
2019-05-23T10:35:21.558Z,3.27
2019-05-23T10:37:50.784Z,3.55
2019-05-23T10:40:20.072Z,3.90
2019-05-23T10:42:49.254Z,3.90
2019-05-23T10:45:18.453Z,3.33
2019-05-23T10:47:47.691Z,3.67
2019-05-23T10:50:16.897Z,3.30
2019-05-23T10:52:46.104Z,3.65
2019-05-23T10:55:15.361Z,4.70
2019-05-23T10:57:44.618Z,3.80
2019-05-23T11:00:13.835Z,4.10
2019-05-23T11:02:43.541Z,3.50
2019-05-23T11:05:14.063Z,3.70
2019-05-23T11:07:41.809Z,4.12
2019-05-23T11:10:11.047Z,3.60
2019-05-23T11:12:40.253Z,5.00
2019-05-23T11:15:09.441Z,4.20
2019-05-23T11:17:38.693Z,4.83
2019-05-23T11:20:07.856Z,4.17
2019-05-23T11:22:37.086Z,5.12
2019-05-23T11:25:07.014Z,4.53
2019-05-23T11:27:36.202Z,4.73
2019-05-23T11:30:05.389Z,4.03
2019-05-23T11:32:34.675Z,4.58
2019-05-23T11:35:03.949Z,4.10
2019-05-23T11:37:33.192Z,4.23
2019-05-23T11:40:02.668Z,3.35
2019-05-23T11:42:31.849Z,4.13
2019-05-23T11:45:01.085Z,44.87
2019-05-23T11:47:32.095Z,4.87
2019-05-23T11:49:59.817Z,4.10
2019-05-23T11:52:29.056Z,4.63
2019-05-23T11:54:58.441Z,4.27
2019-05-23T11:57:27.962Z,4.03
2019-05-23T11:59:57.261Z,4.03
2019-05-23T12:02:32.537Z,4.30
2019-05-23T12:05:03.370Z,4.13
2019-05-23T12:07:33.932Z,4.17
2019-05-23T12:10:03.627Z,3.60
2019-05-23T12:12:33.216Z,3.30
2019-05-23T12:15:02.437Z,3.20
2019-05-23T12:17:31.717Z,3.33
2019-05-23T12:20:01.118Z,4.22
2019-05-23T12:22:30.343Z,3.52
2019-05-23T12:25:18.197Z,3.30
2019-05-23T12:27:28.878Z,3.30
2019-05-23T12:29:58.186Z,2.67
2019-05-23T12:32:27.399Z,2.80
2019-05-23T12:35:09.587Z,2.70
2019-05-23T12:37:25.900Z,2.60
2019-05-23T12:39:55.085Z,3.60
2019-05-23T12:42:24.311Z,2.53
2019-05-23T12:44:53.500Z,2.37
2019-05-23T12:47:27.037Z,2.17
2019-05-23T12:50:00.790Z,2.47
2019-05-23T12:52:30.025Z,22.63
2019-05-23T12:54:59.215Z,6.77
2019-05-23T12:57:28.405Z,4.97
2019-05-23T12:59:58.282Z,4.70
2019-05-23T13:02:27.515Z,3.23
2019-05-23T13:04:56.887Z,2.58
2019-05-23T13:07:35.706Z,2.67
2019-05-23T13:09:55.304Z,2.47
2019-05-23T13:12:24.573Z,3.00
2019-05-23T13:14:58.466Z,2.87
2019-05-23T13:17:22.921Z,2.80
2019-05-23T13:19:52.084Z,2.83
2019-05-23T13:22:21.349Z,2.93
2019-05-23T13:24:53.018Z,3.00
2019-05-23T13:27:19.738Z,3.07
2019-05-23T13:29:48.978Z,3.13
2019-05-23T13:32:18.163Z,2.47
2019-05-23T13:34:48.077Z,2.60
2019-05-23T13:37:17.581Z,2.35
2019-05-23T13:39:46.475Z,2.43
2019-05-23T13:42:15.669Z,2.20
2019-05-23T13:44:45.069Z,3.03
2019-05-23T13:47:14.281Z,2.10
2019-05-23T13:49:43.473Z,2.70
2019-05-23T13:52:12.714Z,2.80
2019-05-23T13:54:41.867Z,2.30
2019-05-23T13:57:11.113Z,2.50
2019-05-23T13:59:40.286Z,2.45
2019-05-23T14:02:09.556Z,2.60
2019-05-23T14:04:38.754Z,2.13
2019-05-23T14:07:07.987Z,2.85
2019-05-23T14:09:37.593Z,3.13
2019-05-23T14:12:20.881Z,3.40
2019-05-23T14:14:35.962Z,3.20
2019-05-23T14:17:14.437Z,2.90
2019-05-23T14:19:43.635Z,2.87
2019-05-23T14:22:12.816Z,2.37
2019-05-23T14:24:42.078Z,3.07
2019-05-23T14:27:15.588Z,2.30
2019-05-23T14:29:44.797Z,2.55
2019-05-23T14:32:18.314Z,3.10
2019-05-23T14:34:47.572Z,2.37
2019-05-23T14:37:21.093Z,2.00
2019-05-23T14:39:54.583Z,2.47
2019-05-23T14:42:28.256Z,2.00
2019-05-23T14:44:57.449Z,2.27
2019-05-23T14:47:32.157Z,2.13
2019-05-23T14:50:07.690Z,2.10
2019-05-23T14:52:39.426Z,2.07
2019-05-23T14:55:10.825Z,2.20
2019-05-23T14:57:39.450Z,2.70
2019-05-23T15:00:08.656Z,2.60
2019-05-23T15:02:37.888Z,2.52
2019-05-23T15:05:07.151Z,2.95
2019-05-23T15:07:36.341Z,2.37
2019-05-23T15:10:05.542Z,2.47
2019-05-23T15:12:34.721Z,2.87
2019-05-23T15:15:03.945Z,2.75
2019-05-23T15:17:33.146Z,2.43
2019-05-23T15:20:02.338Z,2.42
2019-05-23T15:22:31.544Z,2.53
2019-05-23T15:25:00.804Z,2.70
2019-05-23T15:27:33.052Z,2.83
2019-05-23T15:29:59.231Z,2.43
2019-05-23T15:32:28.435Z,2.20
2019-05-23T15:34:57.671Z,2.35
2019-05-23T15:37:26.889Z,2.47
2019-05-23T15:39:56.150Z,2.13
2019-05-23T15:42:25.403Z,2.17
2019-05-23T15:44:54.618Z,2.20
2019-05-23T15:47:26.022Z,1.77
2019-05-23T15:49:55.271Z,2.45
2019-05-23T15:52:33.753Z,2.23
2019-05-23T15:55:07.320Z,1.53
2019-05-23T15:57:43.757Z,1.82
2019-05-23T16:00:18.339Z,1.50
2019-05-23T16:02:53.884Z,1.70
2019-05-23T16:05:23.120Z,1.50
2019-05-23T16:07:52.337Z,1.30
2019-05-23T16:10:21.511Z,1.70
2019-05-23T16:12:50.669Z,2.10
2019-05-23T16:15:20.305Z,2.13
2019-05-23T16:17:49.461Z,2.00
2019-05-23T16:20:18.646Z,2.37
2019-05-23T16:22:47.821Z,2.90
2019-05-23T16:25:16.983Z,2.80
2019-05-23T16:27:46.203Z,1.83
2019-05-23T16:30:15.363Z,1.60
2019-05-23T16:32:46.664Z,1.40
2019-05-23T16:35:13.907Z,1.77
2019-05-23T16:37:43.113Z,1.13
2019-05-23T16:40:12.273Z,1.70
2019-05-23T16:42:41.561Z,1.50
2019-05-23T16:45:10.751Z,1.23
2019-05-23T16:47:40.070Z,1.33
2019-05-23T16:50:09.290Z,1.47
2019-05-23T16:52:38.469Z,1.40
2019-05-23T16:55:11.650Z,1.70
2019-05-23T16:57:45.652Z,1.50
2019-05-23T17:00:21.358Z,1.50
2019-05-23T17:02:53.900Z,1.20
2019-05-23T17:05:31.269Z,1.67
2019-05-23T17:08:07.727Z,1.80
2019-05-23T17:10:50.688Z,1.30
2019-05-23T17:13:28.836Z,1.70
2019-05-23T17:16:00.501Z,1.67
2019-05-23T17:18:35.709Z,2.00
2019-05-23T17:21:12.185Z,1.87
2019-05-23T17:23:46.925Z,1.53
2019-05-23T17:26:20.433Z,1.60
2019-05-23T17:28:52.277Z,1.33
2019-05-23T17:31:22.511Z,1.53
2019-05-23T17:33:51.967Z,1.50
2019-05-23T17:36:21.361Z,1.50
2019-05-23T17:38:50.534Z,1.60
2019-05-23T17:41:19.720Z,1.43
2019-05-23T17:43:48.871Z,1.77
2019-05-23T17:46:18.056Z,1.73
2019-05-23T17:48:47.207Z,1.60
2019-05-23T17:51:16.381Z,2.20
2019-05-23T17:53:45.576Z,2.50
2019-05-23T17:56:14.840Z,2.30
2019-05-23T17:58:44.035Z,2.33
2019-05-23T18:01:13.233Z,2.30
2019-05-23T18:03:42.401Z,2.53
2019-05-23T18:06:11.597Z,3.23
2019-05-23T18:08:40.774Z,3.47
2019-05-23T18:11:09.991Z,3.70
2019-05-23T18:13:39.190Z,4.00
2019-05-23T18:16:08.438Z,3.73
2019-05-23T18:18:37.626Z,3.60
2019-05-23T18:21:06.867Z,3.33
2019-05-23T18:23:36.034Z,3.33
2019-05-23T18:26:05.673Z,3.03
2019-05-23T18:28:34.882Z,3.00
2019-05-23T18:31:10.147Z,3.57
2019-05-23T18:33:37.141Z,4.67
2019-05-23T18:36:06.401Z,3.50
2019-05-23T18:38:35.588Z,3.33
2019-05-23T18:41:09.034Z,2.97
2019-05-23T18:45:03.300Z,3.50
2019-05-23T18:47:36.713Z,3.30
2019-05-23T18:50:06.738Z,3.70
2019-05-23T18:52:36.336Z,3.60
2019-05-23T18:55:05.548Z,3.23
2019-05-23T18:57:34.851Z,3.23
2019-05-23T19:00:04.453Z,4.10
2019-05-23T19:02:33.774Z,3.70
2019-05-23T19:05:03.438Z,3.23
2019-05-23T19:07:32.631Z,3.00
2019-05-23T19:10:01.793Z,2.63
2019-05-23T19:12:30.973Z,2.70
2019-05-23T19:15:00.602Z,3.00
2019-05-23T19:17:29.761Z,2.50
2019-05-23T19:19:58.932Z,2.90
2019-05-23T19:22:28.200Z,3.03
2019-05-23T19:24:57.419Z,2.67
2019-05-23T19:27:26.571Z,2.93
2019-05-23T19:29:55.787Z,3.27
2019-05-23T19:32:24.973Z,2.93
2019-05-23T19:34:54.396Z,3.40
2019-05-23T19:37:23.558Z,3.50
2019-05-23T19:39:52.733Z,3.13
2019-05-23T19:42:22.084Z,3.30
2019-05-23T19:44:51.261Z,4.13
2019-05-23T19:47:20.425Z,3.83
2019-05-23T19:49:49.633Z,4.13
2019-05-23T19:52:18.848Z,3.80
2019-05-23T19:54:48.178Z,3.93
2019-05-23T19:57:17.375Z,3.50
2019-05-23T19:59:46.543Z,3.90
2019-05-23T20:02:21.091Z,3.60
2019-05-23T20:04:55.621Z,3.37
2019-05-23T20:07:24.837Z,3.47
2019-05-23T20:09:57.277Z,3.13
2019-05-23T20:12:23.218Z,4.17
2019-05-23T20:14:52.388Z,4.30
2019-05-23T20:17:21.556Z,4.63
2019-05-23T20:19:50.901Z,4.53
2019-05-23T20:22:19.938Z,4.90
2019-05-23T20:24:49.237Z,4.43
2019-05-23T20:27:18.409Z,4.23
2019-05-23T20:29:47.591Z,4.30
2019-05-23T20:32:16.797Z,4.70
2019-05-23T20:34:45.989Z,4.27
2019-05-23T20:37:15.282Z,4.60
2019-05-23T20:39:44.477Z,4.17
2019-05-23T20:42:13.643Z,4.67
2019-05-23T20:44:42.822Z,4.60
2019-05-23T20:47:12.021Z,4.43
2019-05-23T20:49:41.209Z,4.60
2019-05-23T20:52:10.405Z,4.20
2019-05-23T20:54:39.607Z,4.10
2019-05-23T20:57:08.823Z,4.37
2019-05-23T20:59:38.037Z,4.23
2019-05-23T21:02:07.280Z,4.70
2019-05-23T21:04:36.502Z,4.97
2019-05-23T21:07:05.673Z,4.50
2019-05-23T21:09:35.004Z,4.50
2019-05-23T21:12:04.527Z,5.07
2019-05-23T21:14:33.725Z,4.87
2019-05-23T21:17:02.911Z,4.30
2019-05-23T21:19:32.076Z,4.70
2019-05-23T21:22:02.524Z,5.03
2019-05-23T21:24:31.773Z,4.80
2019-05-23T21:27:01.033Z,5.47
2019-05-23T21:29:30.198Z,5.30
2019-05-23T21:32:00.138Z,5.40
2019-05-23T21:34:29.318Z,4.50
2019-05-23T21:36:58.595Z,5.97
2019-05-23T21:39:27.774Z,4.93
2019-05-23T21:41:56.965Z,4.73
2019-05-23T21:44:26.165Z,5.00
2019-05-23T21:46:58.354Z,5.40
2019-05-23T21:49:27.555Z,5.17
2019-05-23T21:51:56.781Z,5.27
2019-05-23T21:54:27.779Z,5.67
2019-05-23T21:56:56.975Z,4.70
2019-05-23T21:59:26.141Z,5.03
2019-05-23T22:02:03.713Z,5.47
2019-05-23T22:04:40.230Z,5.43
2019-05-23T22:07:09.886Z,5.30
2019-05-23T22:09:39.088Z,5.13
2019-05-23T22:12:10.921Z,5.43
2019-05-23T22:14:40.085Z,5.30
2019-05-23T22:17:09.272Z,5.23
2019-05-23T22:19:38.440Z,5.47
2019-05-23T22:22:07.604Z,5.13
2019-05-23T22:24:36.781Z,4.97
2019-05-23T22:27:07.137Z,4.67
2019-05-23T22:29:36.322Z,4.63
2019-05-23T22:32:05.507Z,4.97
2019-05-23T22:35:11.521Z,4.60
2019-05-23T22:37:40.692Z,5.57
2019-05-23T22:40:09.981Z,5.23
2019-05-23T22:42:39.156Z,4.97
2019-05-23T22:45:12.050Z,5.33
2019-05-23T22:47:41.357Z,6.00
2019-05-23T22:50:10.536Z,5.13
2019-05-23T22:52:39.782Z,5.23
2019-05-23T22:55:08.958Z,4.93
2019-05-23T22:57:38.159Z,5.63
2019-05-23T23:00:07.365Z,6.10
2019-05-23T23:02:36.528Z,5.53
2019-05-23T23:05:05.735Z,5.40
2019-05-23T23:07:34.905Z,5.20
2019-05-23T23:10:04.070Z,5.77
2019-05-23T23:12:33.309Z,5.10
2019-05-23T23:15:02.505Z,5.80
2019-05-23T23:17:31.675Z,5.57
2019-05-23T23:20:00.846Z,5.17
2019-05-23T23:22:30.025Z,5.87
2019-05-23T23:24:59.436Z,5.70
2019-05-23T23:27:28.677Z,5.47
2019-05-23T23:29:57.949Z,5.57
2019-05-23T23:32:27.119Z,5.13
2019-05-23T23:34:56.385Z,4.87
2019-05-23T23:37:25.552Z,6.17
2019-05-23T23:39:54.820Z,5.57
2019-05-23T23:42:23.987Z,6.13
2019-05-23T23:44:52.517Z,5.30
2019-05-23T23:47:27.110Z,5.80
2019-05-23T23:50:01.937Z,5.10
2019-05-23T23:52:36.793Z,5.50
2019-05-23T23:55:11.342Z,5.63
2019-05-23T23:57:46.004Z,5.50
